sensor_id;sensor_type;location;lat;lon;timestamp;temperature;humidity
67131;HTU21D;54051;53.464;49.532;2023-05-25T00:01:34;20.95;34.51
67131;HTU21D;54051;53.464;49.532;2023-05-25T00:04:00;20.95;34.52
67131;HTU21D;54051;53.464;49.532;2023-05-25T00:06:28;20.99;34.59
67131;HTU21D;54051;53.464;49.532;2023-05-25T00:08:54;20.95;34.30
67131;HTU21D;54051;53.464;49.532;2023-05-25T00:11:22;20.94;34.31
67131;HTU21D;54051;53.464;49.532;2023-05-25T00:13:48;20.93;34.36
67131;HTU21D;54051;53.464;49.532;2023-05-25T00:16:14;20.89;35.01
67131;HTU21D;54051;53.464;49.532;2023-05-25T00:18:40;20.78;35.23
67131;HTU21D;54051;53.464;49.532;2023-05-25T00:21:08;20.70;35.44
67131;HTU21D;54051;53.464;49.532;2023-05-25T00:23:33;20.62;35.85
67131;HTU21D;54051;53.464;49.532;2023-05-25T00:26:01;20.50;36.30
67131;HTU21D;54051;53.464;49.532;2023-05-25T00:28:27;20.42;36.53
67131;HTU21D;54051;53.464;49.532;2023-05-25T00:30:53;20.34;36.67
67131;HTU21D;54051;53.464;49.532;2023-05-25T00:33:19;20.28;36.90
67131;HTU21D;54051;53.464;49.532;2023-05-25T00:35:44;20.22;37.17
67131;HTU21D;54051;53.464;49.532;2023-05-25T00:38:11;20.14;37.01
67131;HTU21D;54051;53.464;49.532;2023-05-25T00:40:37;20.12;37.74
67131;HTU21D;54051;53.464;49.532;2023-05-25T00:43:04;20.05;38.01
67131;HTU21D;54051;53.464;49.532;2023-05-25T00:45:30;19.95;38.36
67131;HTU21D;54051;53.464;49.532;2023-05-25T00:47:56;19.91;38.56
67131;HTU21D;54051;53.464;49.532;2023-05-25T00:50:28;19.77;39.14
67131;HTU21D;54051;53.464;49.532;2023-05-25T00:53:00;19.70;39.39
67131;HTU21D;54051;53.464;49.532;2023-05-25T00:55:27;19.58;39.88
67131;HTU21D;54051;53.464;49.532;2023-05-25T00:57:54;19.50;40.28
67131;HTU21D;54051;53.464;49.532;2023-05-25T01:00:23;19.45;40.39
67131;HTU21D;54051;53.464;49.532;2023-05-25T01:02:48;19.37;41.00
67131;HTU21D;54051;53.464;49.532;2023-05-25T01:05:17;19.36;40.91
67131;HTU21D;54051;53.464;49.532;2023-05-25T01:07:43;19.29;41.49
67131;HTU21D;54051;53.464;49.532;2023-05-25T01:10:10;19.33;41.66
67131;HTU21D;54051;53.464;49.532;2023-05-25T01:12:39;19.13;42.68
67131;HTU21D;54051;53.464;49.532;2023-05-25T01:15:06;19.01;43.06
67131;HTU21D;54051;53.464;49.532;2023-05-25T01:17:34;18.99;42.90
67131;HTU21D;54051;53.464;49.532;2023-05-25T01:20:03;19.02;43.39
67131;HTU21D;54051;53.464;49.532;2023-05-25T01:22:34;18.98;43.73
67131;HTU21D;54051;53.464;49.532;2023-05-25T01:25:13;18.93;43.86
67131;HTU21D;54051;53.464;49.532;2023-05-25T01:27:42;18.94;43.95
67131;HTU21D;54051;53.464;49.532;2023-05-25T01:30:09;18.96;43.84
67131;HTU21D;54051;53.464;49.532;2023-05-25T01:32:36;18.89;44.49
67131;HTU21D;54051;53.464;49.532;2023-05-25T01:35:03;18.87;44.81
67131;HTU21D;54051;53.464;49.532;2023-05-25T01:37:29;18.85;44.56
67131;HTU21D;54051;53.464;49.532;2023-05-25T01:39:56;18.89;44.54
67131;HTU21D;54051;53.464;49.532;2023-05-25T01:42:22;18.92;44.69
67131;HTU21D;54051;53.464;49.532;2023-05-25T01:44:48;18.99;44.54
67131;HTU21D;54051;53.464;49.532;2023-05-25T01:47:17;19.05;44.19
67131;HTU21D;54051;53.464;49.532;2023-05-25T01:49:47;19.12;44.17
67131;HTU21D;54051;53.464;49.532;2023-05-25T01:52:17;19.29;43.36
67131;HTU21D;54051;53.464;49.532;2023-05-25T01:54:46;19.36;43.02
67131;HTU21D;54051;53.464;49.532;2023-05-25T01:57:13;19.53;42.36
67131;HTU21D;54051;53.464;49.532;2023-05-25T01:59:44;19.72;42.20
67131;HTU21D;54051;53.464;49.532;2023-05-25T02:02:11;20.94;39.34
67131;HTU21D;54051;53.464;49.532;2023-05-25T02:04:38;22.82;34.83
67131;HTU21D;54051;53.464;49.532;2023-05-25T02:07:04;23.76;32.31
67131;HTU21D;54051;53.464;49.532;2023-05-25T02:09:30;24.69;30.73
67131;HTU21D;54051;53.464;49.532;2023-05-25T02:11:56;25.86;28.51
67131;HTU21D;54051;53.464;49.532;2023-05-25T02:14:22;26.96;25.85
67131;HTU21D;54051;53.464;49.532;2023-05-25T02:16:48;27.15;25.67
67131;HTU21D;54051;53.464;49.532;2023-05-25T02:19:13;27.91;24.43
67131;HTU21D;54051;53.464;49.532;2023-05-25T02:21:40;27.98;24.03
67131;HTU21D;54051;53.464;49.532;2023-05-25T02:24:06;28.31;23.86
67131;HTU21D;54051;53.464;49.532;2023-05-25T02:26:34;28.86;22.77
67131;HTU21D;54051;53.464;49.532;2023-05-25T02:29:03;29.47;22.11
67131;HTU21D;54051;53.464;49.532;2023-05-25T02:31:29;30.38;21.05
67131;HTU21D;54051;53.464;49.532;2023-05-25T02:33:55;31.34;19.39
67131;HTU21D;54051;53.464;49.532;2023-05-25T02:36:24;30.55;20.12
67131;HTU21D;54051;53.464;49.532;2023-05-25T02:38:50;29.82;21.28
67131;HTU21D;54051;53.464;49.532;2023-05-25T02:41:19;29.33;22.27
67131;HTU21D;54051;53.464;49.532;2023-05-25T02:43:46;29.15;22.53
67131;HTU21D;54051;53.464;49.532;2023-05-25T02:46:12;29.29;22.41
67131;HTU21D;54051;53.464;49.532;2023-05-25T02:48:38;29.89;21.24
67131;HTU21D;54051;53.464;49.532;2023-05-25T02:51:03;31.25;19.64
67131;HTU21D;54051;53.464;49.532;2023-05-25T02:53:29;32.54;17.55
67131;HTU21D;54051;53.464;49.532;2023-05-25T02:55:55;33.17;16.80
67131;HTU21D;54051;53.464;49.532;2023-05-25T02:58:22;33.45;16.58
67131;HTU21D;54051;53.464;49.532;2023-05-25T03:00:48;34.11;15.88
67131;HTU21D;54051;53.464;49.532;2023-05-25T03:03:15;33.83;15.77
67131;HTU21D;54051;53.464;49.532;2023-05-25T03:05:40;33.00;16.45
67131;HTU21D;54051;53.464;49.532;2023-05-25T03:08:06;32.49;17.17
67131;HTU21D;54051;53.464;49.532;2023-05-25T03:10:32;31.58;18.48
67131;HTU21D;54051;53.464;49.532;2023-05-25T03:12:58;31.43;18.71
67131;HTU21D;54051;53.464;49.532;2023-05-25T03:15:24;32.01;18.14
67131;HTU21D;54051;53.464;49.532;2023-05-25T03:17:50;32.10;18.06
67131;HTU21D;54051;53.464;49.532;2023-05-25T03:20:16;32.66;17.30
67131;HTU21D;54051;53.464;49.532;2023-05-25T03:22:41;31.81;18.18
67131;HTU21D;54051;53.464;49.532;2023-05-25T03:25:08;32.48;17.66
67131;HTU21D;54051;53.464;49.532;2023-05-25T03:27:37;32.90;16.95
67131;HTU21D;54051;53.464;49.532;2023-05-25T03:30:03;32.38;17.48
67131;HTU21D;54051;53.464;49.532;2023-05-25T03:32:29;31.78;18.31
67131;HTU21D;54051;53.464;49.532;2023-05-25T03:34:55;31.97;18.18
67131;HTU21D;54051;53.464;49.532;2023-05-25T03:37:20;32.31;17.40
67131;HTU21D;54051;53.464;49.532;2023-05-25T03:39:46;32.32;17.43
67131;HTU21D;54051;53.464;49.532;2023-05-25T03:42:12;32.57;17.01
67131;HTU21D;54051;53.464;49.532;2023-05-25T03:44:38;32.34;17.28
67131;HTU21D;54051;53.464;49.532;2023-05-25T03:47:04;33.03;16.34
67131;HTU21D;54051;53.464;49.532;2023-05-25T03:49:30;33.47;15.97
67131;HTU21D;54051;53.464;49.532;2023-05-25T03:51:56;34.11;14.90
67131;HTU21D;54051;53.464;49.532;2023-05-25T03:54:24;34.02;15.27
67131;HTU21D;54051;53.464;49.532;2023-05-25T03:56:50;34.46;14.78
67131;HTU21D;54051;53.464;49.532;2023-05-25T03:59:16;34.06;15.32
67131;HTU21D;54051;53.464;49.532;2023-05-25T04:01:43;35.19;14.22
67131;HTU21D;54051;53.464;49.532;2023-05-25T04:04:09;35.90;13.00
67131;HTU21D;54051;53.464;49.532;2023-05-25T04:06:35;36.83;12.04
67131;HTU21D;54051;53.464;49.532;2023-05-25T04:09:04;36.89;11.98
67131;HTU21D;54051;53.464;49.532;2023-05-25T04:11:30;36.41;13.13
67131;HTU21D;54051;53.464;49.532;2023-05-25T04:13:56;36.40;13.25
67131;HTU21D;54051;53.464;49.532;2023-05-25T04:16:22;36.57;12.40
67131;HTU21D;54051;53.464;49.532;2023-05-25T04:18:48;36.31;12.88
67131;HTU21D;54051;53.464;49.532;2023-05-25T04:21:13;36.33;12.80
67131;HTU21D;54051;53.464;49.532;2023-05-25T04:23:41;35.14;14.00
67131;HTU21D;54051;53.464;49.532;2023-05-25T04:26:07;35.29;14.26
67131;HTU21D;54051;53.464;49.532;2023-05-25T04:28:34;36.13;13.01
67131;HTU21D;54051;53.464;49.532;2023-05-25T04:31:01;36.15;13.14
67131;HTU21D;54051;53.464;49.532;2023-05-25T04:33:28;35.79;13.80
67131;HTU21D;54051;53.464;49.532;2023-05-25T04:35:54;35.75;13.78
67131;HTU21D;54051;53.464;49.532;2023-05-25T04:38:23;37.59;11.67
67131;HTU21D;54051;53.464;49.532;2023-05-25T04:40:50;38.66;10.53
67131;HTU21D;54051;53.464;49.532;2023-05-25T04:43:16;38.54;10.90
67131;HTU21D;54051;53.464;49.532;2023-05-25T04:45:43;37.90;11.55
67131;HTU21D;54051;53.464;49.532;2023-05-25T04:48:10;38.46;11.14
67131;HTU21D;54051;53.464;49.532;2023-05-25T04:50:37;38.58;11.08
67131;HTU21D;54051;53.464;49.532;2023-05-25T04:53:04;38.19;11.50
67131;HTU21D;54051;53.464;49.532;2023-05-25T04:55:31;38.32;11.45
67131;HTU21D;54051;53.464;49.532;2023-05-25T04:57:57;39.24;10.50
67131;HTU21D;54051;53.464;49.532;2023-05-25T05:00:23;38.47;11.11
67131;HTU21D;54051;53.464;49.532;2023-05-25T05:02:49;38.53;11.24
67131;HTU21D;54051;53.464;49.532;2023-05-25T05:05:16;39.33;11.00
67131;HTU21D;54051;53.464;49.532;2023-05-25T05:07:42;39.98;10.04
67131;HTU21D;54051;53.464;49.532;2023-05-25T05:10:08;41.06;8.91
67131;HTU21D;54051;53.464;49.532;2023-05-25T05:12:34;41.02;9.15
67131;HTU21D;54051;53.464;49.532;2023-05-25T05:14:59;39.42;10.32
67131;HTU21D;54051;53.464;49.532;2023-05-25T05:17:25;35.94;14.06
67131;HTU21D;54051;53.464;49.532;2023-05-25T05:19:52;34.19;16.14
67131;HTU21D;54051;53.464;49.532;2023-05-25T05:22:18;32.32;18.73
67131;HTU21D;54051;53.464;49.532;2023-05-25T05:24:44;33.70;17.52
67131;HTU21D;54051;53.464;49.532;2023-05-25T05:27:11;35.57;15.00
67131;HTU21D;54051;53.464;49.532;2023-05-25T05:29:38;36.82;13.39
67131;HTU21D;54051;53.464;49.532;2023-05-25T05:32:04;36.69;13.61
67131;HTU21D;54051;53.464;49.532;2023-05-25T05:34:30;38.05;11.84
67131;HTU21D;54051;53.464;49.532;2023-05-25T05:36:56;39.91;9.88
67131;HTU21D;54051;53.464;49.532;2023-05-25T05:39:22;39.59;10.08
67131;HTU21D;54051;53.464;49.532;2023-05-25T05:41:48;40.36;9.21
67131;HTU21D;54051;53.464;49.532;2023-05-25T05:44:13;41.47;8.02
67131;HTU21D;54051;53.464;49.532;2023-05-25T05:46:39;40.98;8.41
67131;HTU21D;54051;53.464;49.532;2023-05-25T05:49:06;40.03;9.43
67131;HTU21D;54051;53.464;49.532;2023-05-25T05:51:31;39.47;9.46
67131;HTU21D;54051;53.464;49.532;2023-05-25T05:53:57;38.37;10.67
67131;HTU21D;54051;53.464;49.532;2023-05-25T05:56:23;36.16;13.27
67131;HTU21D;54051;53.464;49.532;2023-05-25T05:58:50;35.28;14.26
67131;HTU21D;54051;53.464;49.532;2023-05-25T06:01:18;34.17;15.76
67131;HTU21D;54051;53.464;49.532;2023-05-25T06:03:44;36.32;13.89
67131;HTU21D;54051;53.464;49.532;2023-05-25T06:06:10;37.19;12.74
67131;HTU21D;54051;53.464;49.532;2023-05-25T06:08:36;37.97;11.66
67131;HTU21D;54051;53.464;49.532;2023-05-25T06:11:02;39.24;9.88
67131;HTU21D;54051;53.464;49.532;2023-05-25T06:13:28;40.78;8.84
67131;HTU21D;54051;53.464;49.532;2023-05-25T06:15:53;39.64;9.84
67131;HTU21D;54051;53.464;49.532;2023-05-25T06:18:19;40.21;9.79
67131;HTU21D;54051;53.464;49.532;2023-05-25T06:20:45;39.54;10.56
67131;HTU21D;54051;53.464;49.532;2023-05-25T06:23:11;39.49;10.07
67131;HTU21D;54051;53.464;49.532;2023-05-25T06:25:38;40.02;9.57
67131;HTU21D;54051;53.464;49.532;2023-05-25T06:28:04;40.78;8.95
67131;HTU21D;54051;53.464;49.532;2023-05-25T06:30:30;40.42;9.50
67131;HTU21D;54051;53.464;49.532;2023-05-25T06:32:56;38.56;10.69
67131;HTU21D;54051;53.464;49.532;2023-05-25T06:35:22;37.52;12.04
67131;HTU21D;54051;53.464;49.532;2023-05-25T06:37:48;38.14;11.00
67131;HTU21D;54051;53.464;49.532;2023-05-25T06:40:17;38.37;11.22
67131;HTU21D;54051;53.464;49.532;2023-05-25T06:42:43;38.56;10.75
67131;HTU21D;54051;53.464;49.532;2023-05-25T06:45:09;38.23;12.26
67131;HTU21D;54051;53.464;49.532;2023-05-25T06:47:35;38.51;11.94
67131;HTU21D;54051;53.464;49.532;2023-05-25T06:50:01;38.08;12.18
67131;HTU21D;54051;53.464;49.532;2023-05-25T06:52:27;38.28;11.98
67131;HTU21D;54051;53.464;49.532;2023-05-25T06:54:53;38.66;12.01
67131;HTU21D;54051;53.464;49.532;2023-05-25T06:57:20;38.70;12.23
67131;HTU21D;54051;53.464;49.532;2023-05-25T06:59:46;38.46;10.46
67131;HTU21D;54051;53.464;49.532;2023-05-25T07:02:12;37.32;11.85
67131;HTU21D;54051;53.464;49.532;2023-05-25T07:04:37;37.65;12.07
67131;HTU21D;54051;53.464;49.532;2023-05-25T07:07:03;37.42;12.78
67131;HTU21D;54051;53.464;49.532;2023-05-25T07:09:29;37.18;12.36
67131;HTU21D;54051;53.464;49.532;2023-05-25T07:11:55;36.99;12.26
67131;HTU21D;54051;53.464;49.532;2023-05-25T07:14:21;37.62;12.32
67131;HTU21D;54051;53.464;49.532;2023-05-25T07:16:46;37.63;12.18
67131;HTU21D;54051;53.464;49.532;2023-05-25T07:19:12;38.29;12.30
67131;HTU21D;54051;53.464;49.532;2023-05-25T07:21:38;39.06;11.52
67131;HTU21D;54051;53.464;49.532;2023-05-25T07:24:04;39.50;10.25
67131;HTU21D;54051;53.464;49.532;2023-05-25T07:26:30;38.69;10.62
67131;HTU21D;54051;53.464;49.532;2023-05-25T07:28:56;37.73;11.50
67131;HTU21D;54051;53.464;49.532;2023-05-25T07:31:22;37.72;12.40
67131;HTU21D;54051;53.464;49.532;2023-05-25T07:33:48;38.38;11.93
67131;HTU21D;54051;53.464;49.532;2023-05-25T07:36:14;37.87;11.97
67131;HTU21D;54051;53.464;49.532;2023-05-25T07:38:40;38.19;12.50
67131;HTU21D;54051;53.464;49.532;2023-05-25T07:41:06;37.85;11.88
67131;HTU21D;54051;53.464;49.532;2023-05-25T07:43:32;37.57;12.60
67131;HTU21D;54051;53.464;49.532;2023-05-25T07:45:58;37.73;11.87
67131;HTU21D;54051;53.464;49.532;2023-05-25T07:48:25;37.75;13.10
67131;HTU21D;54051;53.464;49.532;2023-05-25T07:50:51;38.16;12.57
67131;HTU21D;54051;53.464;49.532;2023-05-25T07:53:17;38.74;11.89
67131;HTU21D;54051;53.464;49.532;2023-05-25T07:55:43;38.46;11.69
67131;HTU21D;54051;53.464;49.532;2023-05-25T07:58:09;38.16;11.92
67131;HTU21D;54051;53.464;49.532;2023-05-25T08:00:35;37.51;13.52
67131;HTU21D;54051;53.464;49.532;2023-05-25T08:03:00;35.77;15.72
67131;HTU21D;54051;53.464;49.532;2023-05-25T08:05:27;34.53;15.53
67131;HTU21D;54051;53.464;49.532;2023-05-25T08:07:53;33.17;16.78
67131;HTU21D;54051;53.464;49.532;2023-05-25T08:10:19;32.75;16.88
67131;HTU21D;54051;53.464;49.532;2023-05-25T08:12:45;32.69;16.48
67131;HTU21D;54051;53.464;49.532;2023-05-25T08:15:11;32.63;16.23
67131;HTU21D;54051;53.464;49.532;2023-05-25T08:17:38;32.62;16.41
67131;HTU21D;54051;53.464;49.532;2023-05-25T08:20:05;32.55;16.32
67131;HTU21D;54051;53.464;49.532;2023-05-25T08:22:33;32.20;17.00
67131;HTU21D;54051;53.464;49.532;2023-05-25T08:24:59;32.28;18.14
67131;HTU21D;54051;53.464;49.532;2023-05-25T08:27:25;32.22;18.14
67131;HTU21D;54051;53.464;49.532;2023-05-25T08:29:51;31.98;18.53
67131;HTU21D;54051;53.464;49.532;2023-05-25T08:32:16;31.79;18.20
67131;HTU21D;54051;53.464;49.532;2023-05-25T08:34:42;31.63;20.28
67131;HTU21D;54051;53.464;49.532;2023-05-25T08:37:08;31.81;20.76
67131;HTU21D;54051;53.464;49.532;2023-05-25T08:39:34;31.97;18.88
67131;HTU21D;54051;53.464;49.532;2023-05-25T08:42:00;31.74;18.60
67131;HTU21D;54051;53.464;49.532;2023-05-25T08:44:26;31.54;19.55
67131;HTU21D;54051;53.464;49.532;2023-05-25T08:46:54;31.75;20.02
67131;HTU21D;54051;53.464;49.532;2023-05-25T08:49:21;32.00;20.79
67131;HTU21D;54051;53.464;49.532;2023-05-25T08:51:48;32.25;19.13
67131;HTU21D;54051;53.464;49.532;2023-05-25T08:54:16;31.87;20.18
67131;HTU21D;54051;53.464;49.532;2023-05-25T08:56:50;31.70;21.18
67131;HTU21D;54051;53.464;49.532;2023-05-25T08:59:28;31.66;20.76
67131;HTU21D;54051;53.464;49.532;2023-05-25T09:01:57;31.76;20.92
67131;HTU21D;54051;53.464;49.532;2023-05-25T09:04:27;32.09;20.25
67131;HTU21D;54051;53.464;49.532;2023-05-25T09:06:54;32.33;21.59
67131;HTU21D;54051;53.464;49.532;2023-05-25T09:09:20;32.44;20.25
67131;HTU21D;54051;53.464;49.532;2023-05-25T09:11:46;32.48;19.73
67131;HTU21D;54051;53.464;49.532;2023-05-25T09:14:12;32.27;19.63
67131;HTU21D;54051;53.464;49.532;2023-05-25T09:16:38;32.11;20.99
67131;HTU21D;54051;53.464;49.532;2023-05-25T09:19:04;31.89;20.84
67131;HTU21D;54051;53.464;49.532;2023-05-25T09:21:30;31.63;20.41
67131;HTU21D;54051;53.464;49.532;2023-05-25T09:23:57;31.27;21.15
67131;HTU21D;54051;53.464;49.532;2023-05-25T09:26:23;31.18;21.26
67131;HTU21D;54051;53.464;49.532;2023-05-25T09:28:49;31.20;21.05
67131;HTU21D;54051;53.464;49.532;2023-05-25T09:31:15;31.23;21.35
67131;HTU21D;54051;53.464;49.532;2023-05-25T09:33:41;30.95;22.02
67131;HTU21D;54051;53.464;49.532;2023-05-25T09:36:08;30.57;22.27
67131;HTU21D;54051;53.464;49.532;2023-05-25T09:38:35;30.46;22.56
67131;HTU21D;54051;53.464;49.532;2023-05-25T09:41:01;30.61;22.98
67131;HTU21D;54051;53.464;49.532;2023-05-25T09:43:26;30.99;22.27
67131;HTU21D;54051;53.464;49.532;2023-05-25T09:45:52;31.11;23.27
67131;HTU21D;54051;53.464;49.532;2023-05-25T09:48:18;31.13;23.04
67131;HTU21D;54051;53.464;49.532;2023-05-25T09:50:44;31.07;21.30
67131;HTU21D;54051;53.464;49.532;2023-05-25T09:53:11;31.19;23.50
67131;HTU21D;54051;53.464;49.532;2023-05-25T09:55:37;31.22;21.97
67131;HTU21D;54051;53.464;49.532;2023-05-25T09:58:03;30.91;19.48
67131;HTU21D;54051;53.464;49.532;2023-05-25T10:00:29;30.78;20.18
67131;HTU21D;54051;53.464;49.532;2023-05-25T10:02:55;30.99;19.89
67131;HTU21D;54051;53.464;49.532;2023-05-25T10:05:21;31.04;19.61
67131;HTU21D;54051;53.464;49.532;2023-05-25T10:07:49;30.96;17.72
67131;HTU21D;54051;53.464;49.532;2023-05-25T10:10:15;31.04;18.26
67131;HTU21D;54051;53.464;49.532;2023-05-25T10:12:41;31.19;18.28
67131;HTU21D;54051;53.464;49.532;2023-05-25T10:15:08;31.38;19.34
67131;HTU21D;54051;53.464;49.532;2023-05-25T10:17:34;31.69;19.41
67131;HTU21D;54051;53.464;49.532;2023-05-25T10:20:00;31.83;18.76
67131;HTU21D;54051;53.464;49.532;2023-05-25T10:22:39;31.97;18.71
67131;HTU21D;54051;53.464;49.532;2023-05-25T10:25:09;32.16;18.18
67131;HTU21D;54051;53.464;49.532;2023-05-25T10:27:38;31.75;17.83
67131;HTU21D;54051;53.464;49.532;2023-05-25T10:30:05;31.49;17.57
67131;HTU21D;54051;53.464;49.532;2023-05-25T10:32:31;31.33;16.88
67131;HTU21D;54051;53.464;49.532;2023-05-25T10:34:58;31.28;19.34
67131;HTU21D;54051;53.464;49.532;2023-05-25T10:37:26;31.35;18.56
67131;HTU21D;54051;53.464;49.532;2023-05-25T10:39:53;31.48;18.68
67131;HTU21D;54051;53.464;49.532;2023-05-25T10:42:20;31.78;17.97
67131;HTU21D;54051;53.464;49.532;2023-05-25T10:44:46;31.79;16.33
67131;HTU21D;54051;53.464;49.532;2023-05-25T10:47:15;31.73;18.35
67131;HTU21D;54051;53.464;49.532;2023-05-25T10:49:51;31.83;17.32
67131;HTU21D;54051;53.464;49.532;2023-05-25T10:52:18;31.66;17.32
67131;HTU21D;54051;53.464;49.532;2023-05-25T10:54:46;31.38;18.22
67131;HTU21D;54051;53.464;49.532;2023-05-25T10:57:22;31.29;17.86
67131;HTU21D;54051;53.464;49.532;2023-05-25T10:59:49;31.29;17.65
67131;HTU21D;54051;53.464;49.532;2023-05-25T11:02:16;31.14;16.97
67131;HTU21D;54051;53.464;49.532;2023-05-25T11:04:47;31.04;15.71
67131;HTU21D;54051;53.464;49.532;2023-05-25T11:07:14;31.01;16.09
67131;HTU21D;54051;53.464;49.532;2023-05-25T11:09:41;30.86;16.71
67131;HTU21D;54051;53.464;49.532;2023-05-25T11:12:19;30.71;16.29
67131;HTU21D;54051;53.464;49.532;2023-05-25T11:15:07;30.45;16.46
67131;HTU21D;54051;53.464;49.532;2023-05-25T11:17:31;30.37;16.71
67131;HTU21D;54051;53.464;49.532;2023-05-25T11:20:00;30.37;17.30
67131;HTU21D;54051;53.464;49.532;2023-05-25T11:22:31;30.53;17.41
67131;HTU21D;54051;53.464;49.532;2023-05-25T11:24:58;30.62;16.96
67131;HTU21D;54051;53.464;49.532;2023-05-25T11:27:26;30.55;15.80
67131;HTU21D;54051;53.464;49.532;2023-05-25T11:29:52;30.66;17.03
67131;HTU21D;54051;53.464;49.532;2023-05-25T11:32:19;30.87;16.57
67131;HTU21D;54051;53.464;49.532;2023-05-25T11:34:50;31.05;15.97
67131;HTU21D;54051;53.464;49.532;2023-05-25T11:37:18;31.09;18.67
67131;HTU21D;54051;53.464;49.532;2023-05-25T11:39:47;31.02;16.65
67131;HTU21D;54051;53.464;49.532;2023-05-25T11:42:14;30.89;16.84
67131;HTU21D;54051;53.464;49.532;2023-05-25T11:44:39;30.87;17.09
67131;HTU21D;54051;53.464;49.532;2023-05-25T11:47:06;30.97;16.25
67131;HTU21D;54051;53.464;49.532;2023-05-25T11:49:38;31.09;17.39
67131;HTU21D;54051;53.464;49.532;2023-05-25T11:52:06;31.10;16.16
67131;HTU21D;54051;53.464;49.532;2023-05-25T11:54:32;31.06;16.73
67131;HTU21D;54051;53.464;49.532;2023-05-25T11:56:59;31.20;16.28
67131;HTU21D;54051;53.464;49.532;2023-05-25T11:59:30;31.14;16.61
67131;HTU21D;54051;53.464;49.532;2023-05-25T12:04:22;31.35;16.36
67131;HTU21D;54051;53.464;49.532;2023-05-25T12:07:08;31.52;18.36
67131;HTU21D;54051;53.464;49.532;2023-05-25T12:09:34;31.55;16.93
67131;HTU21D;54051;53.464;49.532;2023-05-25T12:12:04;31.58;16.95
67131;HTU21D;54051;53.464;49.532;2023-05-25T12:14:30;31.56;15.33
67131;HTU21D;54051;53.464;49.532;2023-05-25T12:16:59;31.58;15.99
67131;HTU21D;54051;53.464;49.532;2023-05-25T12:19:25;31.51;16.90
67131;HTU21D;54051;53.464;49.532;2023-05-25T12:21:51;31.39;15.89
67131;HTU21D;54051;53.464;49.532;2023-05-25T12:24:17;31.29;15.27
67131;HTU21D;54051;53.464;49.532;2023-05-25T12:26:52;31.27;15.30
67131;HTU21D;54051;53.464;49.532;2023-05-25T12:29:26;31.26;16.17
67131;HTU21D;54051;53.464;49.532;2023-05-25T12:31:52;31.33;16.94
67131;HTU21D;54051;53.464;49.532;2023-05-25T12:34:18;31.43;16.47
67131;HTU21D;54051;53.464;49.532;2023-05-25T12:36:45;31.55;16.68
67131;HTU21D;54051;53.464;49.532;2023-05-25T12:39:12;31.67;16.56
67131;HTU21D;54051;53.464;49.532;2023-05-25T12:41:42;31.57;16.70
67131;HTU21D;54051;53.464;49.532;2023-05-25T12:44:18;31.30;18.10
67131;HTU21D;54051;53.464;49.532;2023-05-25T12:46:43;31.11;16.79
67131;HTU21D;54051;53.464;49.532;2023-05-25T12:49:22;30.98;17.77
67131;HTU21D;54051;53.464;49.532;2023-05-25T12:51:49;30.89;17.19
67131;HTU21D;54051;53.464;49.532;2023-05-25T12:54:15;30.78;18.91
67131;HTU21D;54051;53.464;49.532;2023-05-25T12:56:52;30.76;17.53
67131;HTU21D;54051;53.464;49.532;2023-05-25T12:59:18;30.80;17.70
67131;HTU21D;54051;53.464;49.532;2023-05-25T13:01:44;30.76;18.07
67131;HTU21D;54051;53.464;49.532;2023-05-25T13:04:10;30.61;16.83
67131;HTU21D;54051;53.464;49.532;2023-05-25T13:06:36;30.56;15.97
67131;HTU21D;54051;53.464;49.532;2023-05-25T13:09:02;30.65;16.06
67131;HTU21D;54051;53.464;49.532;2023-05-25T13:11:29;30.62;16.90
67131;HTU21D;54051;53.464;49.532;2023-05-25T13:13:55;30.52;16.29
67131;HTU21D;54051;53.464;49.532;2023-05-25T13:16:21;30.48;16.75
67131;HTU21D;54051;53.464;49.532;2023-05-25T13:18:47;30.36;17.43
67131;HTU21D;54051;53.464;49.532;2023-05-25T13:21:13;30.25;17.67
67131;HTU21D;54051;53.464;49.532;2023-05-25T13:23:42;30.24;17.90
67131;HTU21D;54051;53.464;49.532;2023-05-25T13:26:08;30.32;17.81
67131;HTU21D;54051;53.464;49.532;2023-05-25T13:28:35;30.41;17.44
67131;HTU21D;54051;53.464;49.532;2023-05-25T13:31:01;30.53;18.07
67131;HTU21D;54051;53.464;49.532;2023-05-25T13:33:27;30.74;16.66
67131;HTU21D;54051;53.464;49.532;2023-05-25T13:35:53;30.87;17.32
67131;HTU21D;54051;53.464;49.532;2023-05-25T13:38:32;30.91;17.12
67131;HTU21D;54051;53.464;49.532;2023-05-25T13:40:59;30.95;17.09
67131;HTU21D;54051;53.464;49.532;2023-05-25T13:43:25;31.00;17.64
67131;HTU21D;54051;53.464;49.532;2023-05-25T13:45:51;31.06;17.11
67131;HTU21D;54051;53.464;49.532;2023-05-25T13:48:16;31.13;16.40
67131;HTU21D;54051;53.464;49.532;2023-05-25T13:50:42;31.21;15.87
67131;HTU21D;54051;53.464;49.532;2023-05-25T13:53:11;31.28;16.69
67131;HTU21D;54051;53.464;49.532;2023-05-25T13:55:38;31.31;16.73
67131;HTU21D;54051;53.464;49.532;2023-05-25T13:58:04;31.35;16.42
67131;HTU21D;54051;53.464;49.532;2023-05-25T14:00:30;31.37;16.61
67131;HTU21D;54051;53.464;49.532;2023-05-25T14:02:56;31.35;16.10
67131;HTU21D;54051;53.464;49.532;2023-05-25T14:05:22;31.26;16.96
67131;HTU21D;54051;53.464;49.532;2023-05-25T14:07:48;31.20;16.89
67131;HTU21D;54051;53.464;49.532;2023-05-25T14:10:14;31.21;16.42
67131;HTU21D;54051;53.464;49.532;2023-05-25T14:12:40;31.31;18.35
67131;HTU21D;54051;53.464;49.532;2023-05-25T14:15:06;31.28;17.07
67131;HTU21D;54051;53.464;49.532;2023-05-25T14:17:32;31.36;15.97
67131;HTU21D;54051;53.464;49.532;2023-05-25T14:19:58;31.27;16.72
67131;HTU21D;54051;53.464;49.532;2023-05-25T14:22:24;31.15;17.02
67131;HTU21D;54051;53.464;49.532;2023-05-25T14:24:51;31.07;17.49
67131;HTU21D;54051;53.464;49.532;2023-05-25T14:27:17;31.01;18.18
67131;HTU21D;54051;53.464;49.532;2023-05-25T14:29:45;30.91;18.70
67131;HTU21D;54051;53.464;49.532;2023-05-25T14:32:12;30.85;18.95
67131;HTU21D;54051;53.464;49.532;2023-05-25T14:34:39;30.80;19.23
67131;HTU21D;54051;53.464;49.532;2023-05-25T14:37:05;30.79;20.07
67131;HTU21D;54051;53.464;49.532;2023-05-25T14:39:30;30.75;20.03
67131;HTU21D;54051;53.464;49.532;2023-05-25T14:41:56;30.59;20.54
67131;HTU21D;54051;53.464;49.532;2023-05-25T14:44:22;30.38;20.47
67131;HTU21D;54051;53.464;49.532;2023-05-25T14:46:48;30.23;21.48
67131;HTU21D;54051;53.464;49.532;2023-05-25T14:49:14;30.10;22.69
67131;HTU21D;54051;53.464;49.532;2023-05-25T14:51:41;29.97;23.18
67131;HTU21D;54051;53.464;49.532;2023-05-25T14:54:07;29.95;23.27
67131;HTU21D;54051;53.464;49.532;2023-05-25T14:56:33;29.93;23.58
67131;HTU21D;54051;53.464;49.532;2023-05-25T14:58:59;29.91;23.40
67131;HTU21D;54051;53.464;49.532;2023-05-25T15:01:25;29.79;25.28
67131;HTU21D;54051;53.464;49.532;2023-05-25T15:03:50;29.73;26.11